createdAt,value
2022-09-07T00:01:59.000Z,23.97
2022-09-07T00:04:25.738Z,23.98
2022-09-07T00:06:52.420Z,24.00
2022-09-07T00:09:19.230Z,24.01
2022-09-07T00:11:46.612Z,24.02
2022-09-07T00:14:13.366Z,24.03
2022-09-07T00:16:39.978Z,24.05
2022-09-07T00:19:06.554Z,24.06
2022-09-07T00:21:33.467Z,24.08
2022-09-07T00:23:59.993Z,24.11
2022-09-07T00:26:30.406Z,24.11
2022-09-07T00:28:59.419Z,24.10
2022-09-07T00:31:27.158Z,24.11
2022-09-07T00:33:56.943Z,24.10
2022-09-07T00:36:23.555Z,24.10
2022-09-07T00:38:51.025Z,24.11
2022-09-07T00:41:19.011Z,24.11
2022-09-07T00:43:50.030Z,24.12
2022-09-07T00:46:20.274Z,24.13
2022-09-07T00:49:05.772Z,24.14
2022-09-07T00:51:42.609Z,24.13
2022-09-07T00:54:14.799Z,24.15
2022-09-07T00:56:43.730Z,24.13
2022-09-07T00:59:12.638Z,24.11
2022-09-07T01:01:39.559Z,24.06
2022-09-07T01:04:07.230Z,24.02
2022-09-07T01:06:39.625Z,23.98
2022-09-07T01:09:11.115Z,23.94
2022-09-07T01:11:38.523Z,23.91
2022-09-07T01:14:09.532Z,23.82
2022-09-07T01:16:48.500Z,23.69
2022-09-07T01:19:29.674Z,23.59
2022-09-07T01:22:05.041Z,23.41
2022-09-07T01:24:46.922Z,23.27
2022-09-07T01:27:19.726Z,23.08
2022-09-07T01:30:00.568Z,22.94
2022-09-07T01:33:01.664Z,22.71
2022-09-07T01:35:55.291Z,22.59
2022-09-07T01:38:29.540Z,22.49
2022-09-07T01:41:20.445Z,22.39
2022-09-07T01:44:24.682Z,22.34
2022-09-07T01:47:01.532Z,22.31
2022-09-07T01:49:43.435Z,22.28
2022-09-07T01:52:38.201Z,22.25
2022-09-07T01:55:17.429Z,22.25
2022-09-07T01:57:49.818Z,22.24
2022-09-07T02:00:19.724Z,22.23
2022-09-07T02:02:57.809Z,22.19
2022-09-07T02:05:49.644Z,22.16
2022-09-07T02:08:21.474Z,22.18
2022-09-07T02:11:10.546Z,22.13
2022-09-07T02:13:46.194Z,22.17
2022-09-07T02:16:18.999Z,22.17
2022-09-07T02:18:48.291Z,22.17
2022-09-07T02:21:19.892Z,22.16
2022-09-07T02:23:55.054Z,22.16
2022-09-07T02:26:24.146Z,22.19
2022-09-07T02:28:51.372Z,22.20
2022-09-07T02:31:18.261Z,22.21
2022-09-07T02:33:45.137Z,22.22
2022-09-07T02:36:14.994Z,22.22
2022-09-07T02:38:41.765Z,22.23
2022-09-07T02:41:28.175Z,22.20
2022-09-07T02:43:55.184Z,22.24
2022-09-07T02:47:18.710Z,22.19
2022-09-07T02:50:14.273Z,22.18
2022-09-07T02:52:57.067Z,22.17
2022-09-07T02:55:46.153Z,22.16
2022-09-07T02:58:26.257Z,22.15
2022-09-07T03:01:44.107Z,22.16
2022-09-07T03:04:19.602Z,22.21
2022-09-07T03:06:46.073Z,22.25
2022-09-07T03:09:20.805Z,22.26
2022-09-07T03:11:47.867Z,22.31
2022-09-07T03:14:17.105Z,22.33
2022-09-07T03:16:44.349Z,22.36
2022-09-07T03:19:10.916Z,22.37
2022-09-07T03:21:37.543Z,22.40
2022-09-07T03:24:04.440Z,22.42
2022-09-07T03:26:31.074Z,22.43
2022-09-07T03:28:57.646Z,22.43
2022-09-07T03:31:24.241Z,22.44
2022-09-07T03:33:50.894Z,22.43
2022-09-07T03:36:17.585Z,22.44
2022-09-07T03:38:44.251Z,22.42
2022-09-07T03:41:10.814Z,22.42
2022-09-07T03:43:37.334Z,22.41
2022-09-07T03:46:06.290Z,22.39
2022-09-07T03:48:34.648Z,22.39
2022-09-07T03:51:03.625Z,22.37
2022-09-07T03:53:37.090Z,22.33
2022-09-07T03:56:05.838Z,22.30
2022-09-07T03:58:33.905Z,22.28
2022-09-07T04:01:04.860Z,22.23
2022-09-07T04:03:31.445Z,22.20
2022-09-07T04:06:02.446Z,22.13
2022-09-07T04:08:31.675Z,22.12
2022-09-07T04:11:02.385Z,22.07
2022-09-07T04:13:30.526Z,22.06
2022-09-07T04:15:57.777Z,22.03
2022-09-07T04:18:25.016Z,22.00
2022-09-07T04:20:51.960Z,21.99
2022-09-07T04:23:19.416Z,21.97
2022-09-07T04:25:50.524Z,21.92
2022-09-07T04:28:18.704Z,21.89
2022-09-07T04:30:45.974Z,21.85
2022-09-07T04:33:13.486Z,21.82
2022-09-07T04:35:41.771Z,21.80
2022-09-07T04:38:12.647Z,21.77
2022-09-07T04:40:39.174Z,21.74
2022-09-07T04:43:07.321Z,21.73
2022-09-07T04:45:36.992Z,21.69
2022-09-07T04:48:04.211Z,21.68
2022-09-07T04:50:30.781Z,21.67
2022-09-07T04:52:57.292Z,21.64
2022-09-07T04:55:23.813Z,21.63
2022-09-07T04:57:50.519Z,21.61
2022-09-07T05:00:17.384Z,21.58
2022-09-07T05:02:43.964Z,21.56
2022-09-07T05:05:10.566Z,21.54
2022-09-07T05:07:37.081Z,21.50
2022-09-07T05:10:04.063Z,21.49
2022-09-07T05:12:30.587Z,21.47
2022-09-07T05:14:57.771Z,21.44
2022-09-07T05:17:24.285Z,21.43
2022-09-07T05:19:50.810Z,21.42
2022-09-07T05:22:17.600Z,21.40
2022-09-07T05:24:44.169Z,21.39
2022-09-07T05:27:10.677Z,21.37
2022-09-07T05:32:23.833Z,21.35
2022-09-07T05:34:52.902Z,21.33
2022-09-07T05:37:19.896Z,21.32
2022-09-07T05:39:46.929Z,21.32
2022-09-07T05:42:13.812Z,21.32
2022-09-07T05:47:09.835Z,21.31
2022-09-07T05:49:36.394Z,21.30
2022-09-07T05:52:03.264Z,21.28
2022-09-07T05:54:29.770Z,21.29
2022-09-07T05:56:56.272Z,21.28
2022-09-07T05:59:22.807Z,21.28
2022-09-07T06:01:49.424Z,21.27
2022-09-07T06:04:16.147Z,21.26
2022-09-07T06:06:47.832Z,21.25
2022-09-07T06:09:29.831Z,21.26
2022-09-07T06:11:57.140Z,21.25
2022-09-07T06:14:23.676Z,21.26
2022-09-07T06:16:50.226Z,21.26
2022-09-07T06:19:16.794Z,21.27
2022-09-07T06:21:43.589Z,21.29
2022-09-07T06:24:10.123Z,21.32
2022-09-07T06:26:36.626Z,21.34
2022-09-07T06:29:03.826Z,21.37
2022-09-07T06:31:30.761Z,21.40
2022-09-07T06:33:57.557Z,21.44
2022-09-07T06:36:27.787Z,21.47
2022-09-07T06:38:55.538Z,21.52
2022-09-07T06:44:12.386Z,21.62
2022-09-07T06:49:26.293Z,21.78
2022-09-07T06:51:53.279Z,21.86
2022-09-07T06:57:09.272Z,22.06
2022-09-07T06:59:36.760Z,22.17
2022-09-07T07:02:04.429Z,22.25
2022-09-07T07:04:31.117Z,22.33
2022-09-07T07:06:58.372Z,22.41
2022-09-07T07:09:24.997Z,22.46
2022-09-07T07:11:51.551Z,22.49
2022-09-07T07:14:18.309Z,22.55
2022-09-07T07:16:45.024Z,22.58
2022-09-07T07:19:11.684Z,22.60
2022-09-07T07:22:03.561Z,22.64
2022-09-07T07:24:24.900Z,22.68
2022-09-07T07:26:51.525Z,22.69
2022-09-07T07:29:18.947Z,22.71
2022-09-07T07:31:47.069Z,22.73
2022-09-07T07:34:14.043Z,22.76
2022-09-07T07:36:40.649Z,22.83
2022-09-07T07:39:07.348Z,22.88
2022-09-07T07:44:21.113Z,23.03
2022-09-07T07:46:51.167Z,23.09
2022-09-07T07:49:18.049Z,23.17
2022-09-07T07:54:34.035Z,23.29
2022-09-07T07:57:00.525Z,23.35
2022-09-07T07:59:27.010Z,23.38
2022-09-07T08:01:53.589Z,23.39
2022-09-07T08:04:20.372Z,23.41
2022-09-07T08:06:46.900Z,23.43
2022-09-07T08:09:13.410Z,23.49
2022-09-07T08:11:40.534Z,23.54
2022-09-07T08:14:08.661Z,23.60
2022-09-07T08:16:36.370Z,23.67
2022-09-07T08:19:03.464Z,23.74
2022-09-07T08:21:30.024Z,23.84
2022-09-07T08:23:57.007Z,23.93
2022-09-07T08:26:23.668Z,24.02
2022-09-07T08:28:50.146Z,24.10
2022-09-07T08:31:17.465Z,24.17
2022-09-07T08:33:44.743Z,24.22
2022-09-07T08:36:31.814Z,24.24
2022-09-07T08:38:58.362Z,24.35
2022-09-07T08:41:34.314Z,24.38
2022-09-07T08:44:10.453Z,24.47
2022-09-07T08:46:45.468Z,24.55
2022-09-07T08:49:33.698Z,24.56
2022-09-07T08:52:25.915Z,24.62
2022-09-07T08:55:14.561Z,24.69
2022-09-07T08:57:47.148Z,24.77
2022-09-07T09:00:16.781Z,24.77
2022-09-07T09:03:28.629Z,24.72
2022-09-07T09:05:51.106Z,24.65
2022-09-07T09:08:31.123Z,24.64
2022-09-07T09:11:01.356Z,24.64
2022-09-07T09:13:36.615Z,24.61
2022-09-07T09:16:35.786Z,24.62
2022-09-07T09:19:23.985Z,24.65
2022-09-07T09:22:02.612Z,24.73
2022-09-07T09:24:37.387Z,24.82
2022-09-07T09:27:03.976Z,24.92
2022-09-07T09:29:30.530Z,25.01
2022-09-07T09:31:57.067Z,25.06
2022-09-07T09:34:25.460Z,25.09
2022-09-07T09:36:56.034Z,25.11
2022-09-07T09:39:32.977Z,25.07
2022-09-07T09:42:22.322Z,25.08
2022-09-07T09:44:50.117Z,25.06
2022-09-07T09:47:33.878Z,25.01
2022-09-07T09:50:07.974Z,24.97
2022-09-07T09:52:47.726Z,24.93
2022-09-07T09:55:37.668Z,24.85
2022-09-07T10:03:58.406Z,24.67
2022-09-07T10:06:27.989Z,24.59
2022-09-07T10:09:02.141Z,24.50
2022-09-07T10:14:42.077Z,24.44
2022-09-07T10:17:17.939Z,24.38
2022-09-07T10:19:44.689Z,24.38
2022-09-07T10:22:34.086Z,24.34
2022-09-07T10:25:01.213Z,24.47
2022-09-07T10:27:33.297Z,24.56
2022-09-07T10:30:01.332Z,24.70
2022-09-07T10:32:58.474Z,24.81
2022-09-07T10:35:39.388Z,24.96
2022-09-07T10:38:21.239Z,25.03
2022-09-07T10:40:56.453Z,25.10
2022-09-07T10:43:41.195Z,25.13
2022-09-07T10:49:34.641Z,25.16
2022-09-07T10:52:23.875Z,25.15
2022-09-07T10:54:56.323Z,25.20
2022-09-07T10:57:36.988Z,25.22
2022-09-07T11:00:12.918Z,25.24
2022-09-07T11:05:56.202Z,25.28
2022-09-07T11:12:05.091Z,25.32
2022-09-07T11:14:42.333Z,25.40
2022-09-07T11:17:17.400Z,25.46
2022-09-07T11:20:14.394Z,25.52
2022-09-07T11:22:49.714Z,25.62
2022-09-07T11:25:32.632Z,25.71
2022-09-07T11:28:01.841Z,25.80
2022-09-07T11:30:37.089Z,25.97
2022-09-07T11:33:22.096Z,26.12
2022-09-07T11:36:12.494Z,26.35
2022-09-07T11:38:44.367Z,26.60
2022-09-07T11:41:19.988Z,26.78
2022-09-07T11:43:53.186Z,26.92
2022-09-07T11:46:37.596Z,26.97
2022-09-07T11:49:11.576Z,27.01
2022-09-07T11:51:43.098Z,27.00
2022-09-07T11:54:27.351Z,26.93
2022-09-07T11:57:09.824Z,26.91
2022-09-07T12:00:06.385Z,26.84
2022-09-07T12:03:11.716Z,26.76
2022-09-07T12:06:10.330Z,26.71
2022-09-07T12:09:07.214Z,26.67
2022-09-07T12:12:06.653Z,26.65
2022-09-07T12:14:48.344Z,26.69
2022-09-07T12:17:41.636Z,26.74
2022-09-07T12:20:15.223Z,26.82
2022-09-07T12:23:17.020Z,26.84
2022-09-07T12:25:45.992Z,26.91
2022-09-07T12:28:21.803Z,26.90
2022-09-07T12:31:06.742Z,26.94
2022-09-07T12:33:36.643Z,27.16
2022-09-07T12:36:28.678Z,27.39
2022-09-07T12:39:28.258Z,27.70
2022-09-07T12:45:28.319Z,28.27
2022-09-07T12:48:24.574Z,28.53
2022-09-07T12:51:16.096Z,28.71
2022-09-07T12:54:16.836Z,28.85
2022-09-07T13:00:01.758Z,29.11
2022-09-07T13:09:37.601Z,30.00
2022-09-07T13:12:54.659Z,30.59
2022-09-07T13:15:48.462Z,31.23
2022-09-07T13:18:41.052Z,31.63
2022-09-07T13:21:07.530Z,31.97
2022-09-07T13:23:39.004Z,32.21
2022-09-07T13:26:09.165Z,32.43
2022-09-07T13:28:56.007Z,32.58
2022-09-07T13:31:48.552Z,32.70
2022-09-07T13:34:33.735Z,32.91
2022-09-07T13:37:02.290Z,33.16
2022-09-07T13:39:32.573Z,33.36
2022-09-07T13:42:00.685Z,33.55
2022-09-07T13:44:32.557Z,33.63
2022-09-07T13:47:26.554Z,33.57
2022-09-07T13:50:16.887Z,33.40
2022-09-07T13:53:08.409Z,33.14
2022-09-07T13:55:58.737Z,32.90
2022-09-07T13:58:35.546Z,32.75
2022-09-07T14:01:16.196Z,32.65
2022-09-07T14:04:06.587Z,32.44
2022-09-07T14:06:38.075Z,32.33
2022-09-07T14:09:13.601Z,32.21
2022-09-07T14:11:52.579Z,32.11
2022-09-07T14:14:23.571Z,32.07
2022-09-07T14:16:57.172Z,32.02
2022-09-07T14:19:27.071Z,31.93
2022-09-07T14:22:02.447Z,31.75
2022-09-07T14:24:35.195Z,31.53
2022-09-07T14:27:02.599Z,31.34
2022-09-07T14:29:35.004Z,31.13
2022-09-07T14:32:04.378Z,30.92
2022-09-07T14:34:35.109Z,30.69
2022-09-07T14:37:18.086Z,30.52
2022-09-07T14:39:48.069Z,30.49
2022-09-07T14:42:20.488Z,30.46
2022-09-07T14:44:47.169Z,30.41
2022-09-07T14:47:33.773Z,30.30
2022-09-07T14:50:06.067Z,30.27
2022-09-07T14:52:43.037Z,30.19
2022-09-07T14:55:32.108Z,30.11
2022-09-07T14:58:13.906Z,30.06
2022-09-07T15:00:46.053Z,30.12
2022-09-07T15:03:42.120Z,30.16
2022-09-07T15:07:00.945Z,30.28
2022-09-07T15:08:57.883Z,30.34
2022-09-07T15:11:34.645Z,30.35
2022-09-07T15:14:11.681Z,30.36
2022-09-07T15:16:42.506Z,30.46
2022-09-07T15:19:15.135Z,30.54
2022-09-07T15:21:43.050Z,30.63
2022-09-07T15:24:10.053Z,30.62
2022-09-07T15:29:32.466Z,30.41
2022-09-07T15:32:04.392Z,30.29
2022-09-07T15:34:32.375Z,30.17
2022-09-07T15:37:00.828Z,30.03
2022-09-07T15:39:29.981Z,29.91
2022-09-07T15:41:57.819Z,29.81
2022-09-07T15:44:28.012Z,29.79
2022-09-07T15:49:47.752Z,29.90
2022-09-07T15:52:17.371Z,29.96
2022-09-07T15:54:43.961Z,29.98
2022-09-07T15:59:57.278Z,29.99
2022-09-07T16:05:10.925Z,29.90
2022-09-07T16:10:24.532Z,29.68
2022-09-07T16:15:48.848Z,29.33
2022-09-07T16:18:26.514Z,29.22
2022-09-07T16:20:53.487Z,29.09
2022-09-07T16:23:20.035Z,28.99
2022-09-07T16:25:57.786Z,28.86
2022-09-07T16:28:24.350Z,28.85
2022-09-07T16:30:50.988Z,28.80
2022-09-07T16:33:17.515Z,28.74
2022-09-07T16:35:44.076Z,28.68
2022-09-07T16:40:58.106Z,28.57
2022-09-07T16:43:24.782Z,28.53
2022-09-07T16:46:05.225Z,28.38
2022-09-07T16:48:33.382Z,28.34
2022-09-07T16:51:02.619Z,28.27
2022-09-07T16:53:30.477Z,28.17
2022-09-07T16:56:04.432Z,28.05
2022-09-07T16:58:36.437Z,27.97
2022-09-07T17:01:04.399Z,27.88
2022-09-07T17:03:30.993Z,27.79
2022-09-07T17:06:01.003Z,27.66
2022-09-07T17:08:28.308Z,27.58
2022-09-07T17:11:07.006Z,27.44
2022-09-07T17:13:34.916Z,27.41
2022-09-07T17:16:21.797Z,27.32
2022-09-07T17:21:37.697Z,27.16
2022-09-07T17:24:06.046Z,27.10
2022-09-07T17:26:33.357Z,27.04
2022-09-07T17:29:00.910Z,26.99
2022-09-07T17:34:20.102Z,26.90
2022-09-07T17:36:47.712Z,26.85
2022-09-07T17:39:16.698Z,26.78
2022-09-07T17:41:44.280Z,26.71
2022-09-07T17:44:10.975Z,26.63
2022-09-07T17:46:37.649Z,26.55
2022-09-07T17:49:06.995Z,26.47
2022-09-07T17:51:33.719Z,26.39
2022-09-07T17:54:02.849Z,26.31
2022-09-07T17:56:30.581Z,26.23
2022-09-07T18:01:45.116Z,26.03
2022-09-07T18:04:11.861Z,25.94
2022-09-07T18:06:38.467Z,25.83
2022-09-07T18:09:05.461Z,25.72
2022-09-07T18:11:49.083Z,25.62
2022-09-07T18:14:16.833Z,25.53
2022-09-07T18:16:45.378Z,25.42
2022-09-07T18:19:12.741Z,25.34
2022-09-07T18:21:42.151Z,25.26
2022-09-07T18:24:18.672Z,25.15
2022-09-07T18:26:51.523Z,25.08
2022-09-07T18:29:39.172Z,24.98
2022-09-07T18:32:09.647Z,24.90
2022-09-07T18:34:38.356Z,24.79
2022-09-07T18:37:05.186Z,24.69
2022-09-07T18:39:32.408Z,24.59
2022-09-07T18:41:59.174Z,24.52
2022-09-07T18:47:21.112Z,24.35
2022-09-07T18:49:49.820Z,24.27
2022-09-07T18:55:02.883Z,24.15
2022-09-07T18:57:29.382Z,24.08
2022-09-07T18:59:55.859Z,24.04
2022-09-07T19:02:22.478Z,23.99
2022-09-07T19:07:35.536Z,23.93
2022-09-07T19:10:04.438Z,23.90
2022-09-07T19:12:30.954Z,23.86
2022-09-07T19:14:57.438Z,23.83
2022-09-07T19:17:24.804Z,23.81
2022-09-07T19:19:52.792Z,23.76
2022-09-07T19:22:19.309Z,23.74
2022-09-07T19:24:45.885Z,23.72
2022-09-07T19:27:12.464Z,23.68
2022-09-07T19:29:38.970Z,23.65
2022-09-07T19:32:06.799Z,23.62
2022-09-07T19:34:37.981Z,23.58
2022-09-07T19:37:06.398Z,23.55
2022-09-07T19:39:33.214Z,23.53
2022-09-07T19:42:00.486Z,23.50
2022-09-07T19:44:27.915Z,23.47
2022-09-07T19:46:54.698Z,23.44
2022-09-07T19:49:21.683Z,23.40
2022-09-07T19:51:51.168Z,23.38
2022-09-07T19:54:18.187Z,23.36
2022-09-07T19:56:44.817Z,23.33
2022-09-07T19:59:12.425Z,23.30
2022-09-07T20:01:40.620Z,23.29
2022-09-07T20:04:12.253Z,23.27
2022-09-07T20:06:41.639Z,23.27
2022-09-07T20:09:08.356Z,23.25
2022-09-07T20:11:36.498Z,23.24
2022-09-07T20:14:03.680Z,23.24
2022-09-07T20:16:31.159Z,23.22
2022-09-07T20:18:58.856Z,23.20
2022-09-07T20:21:26.130Z,23.17
2022-09-07T20:23:52.797Z,23.15
2022-09-07T20:26:21.011Z,23.14
2022-09-07T20:29:05.839Z,23.09
2022-09-07T20:31:40.326Z,23.10
2022-09-07T20:34:06.911Z,23.06
2022-09-07T20:36:33.465Z,23.01
2022-09-07T20:39:00.007Z,22.98
2022-09-07T20:41:28.809Z,22.95
2022-09-07T20:43:57.027Z,22.92
2022-09-07T20:46:23.624Z,22.88
2022-09-07T20:48:50.190Z,22.84
2022-09-07T20:51:20.792Z,22.78
2022-09-07T20:53:49.132Z,22.74
2022-09-07T20:56:18.226Z,22.70
2022-09-07T20:58:46.206Z,22.65
2022-09-07T21:01:14.980Z,22.60
2022-09-07T21:03:49.172Z,22.54
2022-09-07T21:06:17.037Z,22.50
2022-09-07T21:08:45.269Z,22.46
2022-09-07T21:11:17.379Z,22.41
2022-09-07T21:13:43.972Z,22.38
2022-09-07T21:16:16.928Z,22.33
2022-09-07T21:18:44.221Z,22.32
2022-09-07T21:21:20.048Z,22.34
2022-09-07T21:23:47.604Z,22.29
2022-09-07T21:26:14.168Z,22.25
2022-09-07T21:28:40.725Z,22.22
2022-09-07T21:31:08.668Z,22.19
2022-09-07T21:33:37.251Z,22.17
2022-09-07T21:36:09.491Z,22.15
2022-09-07T21:38:37.916Z,22.13
2022-09-07T21:41:13.381Z,22.07
2022-09-07T21:43:41.218Z,22.09
2022-09-07T21:46:18.884Z,22.02
2022-09-07T21:48:46.329Z,22.03
2022-09-07T21:51:14.190Z,21.98
2022-09-07T21:53:41.723Z,21.97
2022-09-07T21:56:12.666Z,21.94
2022-09-07T21:58:40.130Z,21.93
2022-09-07T22:01:17.744Z,21.89
2022-09-07T22:03:47.294Z,21.88
2022-09-07T22:06:14.962Z,21.85
2022-09-07T22:08:42.619Z,21.82
2022-09-07T22:11:12.650Z,21.78
2022-09-07T22:13:39.980Z,21.76
2022-09-07T22:16:07.404Z,21.70
2022-09-07T22:18:35.860Z,21.67
2022-09-07T22:21:08.071Z,21.62
2022-09-07T22:23:36.884Z,21.61
2022-09-07T22:26:03.937Z,21.57
2022-09-07T22:28:31.426Z,21.55
2022-09-07T22:31:11.904Z,21.49
2022-09-07T22:33:39.687Z,21.51
2022-09-07T22:36:11.255Z,21.49
2022-09-07T22:38:38.724Z,21.50
2022-09-07T22:41:15.202Z,21.42
2022-09-07T22:43:42.794Z,21.45
2022-09-07T22:46:10.076Z,21.43
2022-09-07T22:48:36.933Z,21.43
2022-09-07T22:51:04.188Z,21.41
2022-09-07T22:53:33.469Z,21.39
2022-09-07T22:56:00.740Z,21.38
2022-09-07T22:58:30.325Z,21.36
2022-09-07T23:01:00.824Z,21.34
2022-09-07T23:03:31.970Z,21.32
2022-09-07T23:05:58.994Z,21.31
2022-09-07T23:08:26.046Z,21.28
2022-09-07T23:10:53.394Z,21.25
2022-09-07T23:13:21.039Z,21.22
2022-09-07T23:15:48.544Z,21.18
2022-09-07T23:18:20.673Z,21.13
2022-09-07T23:20:47.230Z,21.14
2022-09-07T23:23:14.167Z,21.11
2022-09-07T23:25:42.135Z,21.07
2022-09-07T23:28:12.418Z,21.05
2022-09-07T23:30:42.120Z,21.05
2022-09-07T23:33:08.718Z,21.03
2022-09-07T23:35:35.223Z,21.00
2022-09-07T23:38:01.754Z,20.98
2022-09-07T23:40:30.404Z,20.96
2022-09-07T23:42:57.276Z,20.94
2022-09-07T23:45:24.201Z,20.93
2022-09-07T23:47:50.948Z,20.91
2022-09-07T23:50:17.884Z,20.89
2022-09-07T23:52:44.482Z,20.88
2022-09-07T23:55:11.405Z,20.85
2022-09-07T23:57:38.917Z,20.84
